sensor_id;sensor_type;location;lat;lon;timestamp;P1;durP1;ratioP1;P2;durP2;ratioP2
32451;SDS011;45528;52.102;5.242;2023-06-14T00:02:54;8.4;;;2.0;;
32451;SDS011;45528;52.102;5.242;2023-06-14T00:04:31;4.3;;;2.0;;
32451;SDS011;45528;52.102;5.242;2023-06-14T00:06:07;6.9;;;2.0;;
32451;SDS011;45528;52.102;5.242;2023-06-14T00:09:19;4.7;;;2.0;;
32451;SDS011;45528;52.102;5.242;2023-06-14T00:10:55;4.0;;;2.1;;
32451;SDS011;45528;52.102;5.242;2023-06-14T00:12:31;5.11;;;1.9;;
32451;SDS011;45528;52.102;5.242;2023-06-14T00:14:07;4.5;;;1.9;;
32451;SDS011;45528;52.102;5.242;2023-06-14T00:17:21;3.5;;;1.9;;
32451;SDS011;45528;52.102;5.242;2023-06-14T00:18:57;5.2;;;2.0;;
32451;SDS011;45528;52.102;5.242;2023-06-14T00:20:33;5.2;;;2.0;;
32451;SDS011;45528;52.102;5.242;2023-06-14T00:23:45;4.2;;;2.0;;
32451;SDS011;45528;52.102;5.242;2023-06-14T00:25:22;4.8;;;1.9;;
32451;SDS011;45528;52.102;5.242;2023-06-14T00:26:59;5.3;;;2.0;;
32451;SDS011;45528;52.102;5.242;2023-06-14T00:30:11;4.41;;;1.8;;
32451;SDS011;45528;52.102;5.242;2023-06-14T00:31:48;4.3;;;2.0;;
32451;SDS011;45528;52.102;5.242;2023-06-14T00:33:24;4.61;;;1.8;;
32451;SDS011;45528;52.102;5.242;2023-06-14T00:35:00;3.3;;;1.9;;
32451;SDS011;45528;52.102;5.242;2023-06-14T00:38:13;3.3;;;1.9;;
32451;SDS011;45528;52.102;5.242;2023-06-14T00:39:49;4.8;;;1.9;;
32451;SDS011;45528;52.102;5.242;2023-06-14T00:41:25;5.3;;;1.9;;
32451;SDS011;45528;52.102;5.242;2023-06-14T00:44:37;6.1;;;1.8;;
32451;SDS011;45528;52.102;5.242;2023-06-14T00:46:13;5.9;;;2.0;;
32451;SDS011;45528;52.102;5.242;2023-06-14T00:47:49;5.3;;;1.7;;
32451;SDS011;45528;52.102;5.242;2023-06-14T00:51:05;4.5;;;1.9;;
32451;SDS011;45528;52.102;5.242;2023-06-14T00:52:42;3.3;;;2.1;;
32451;SDS011;45528;52.102;5.242;2023-06-14T00:54:18;7.1;;;1.8;;
32451;SDS011;45528;52.102;5.242;2023-06-14T00:55:54;8.4;;;2.31;;
32451;SDS011;45528;52.102;5.242;2023-06-14T00:59:07;3.9;;;2.0;;
32451;SDS011;45528;52.102;5.242;2023-06-14T01:00:43;5.6;;;1.8;;
32451;SDS011;45528;52.102;5.242;2023-06-14T01:02:19;4.5;;;1.9;;
32451;SDS011;45528;52.102;5.242;2023-06-14T01:05:31;5.4;;;2.21;;
32451;SDS011;45528;52.102;5.242;2023-06-14T01:07:10;6.9;;;1.7;;
32451;SDS011;45528;52.102;5.242;2023-06-14T01:08:57;4.61;;;1.9;;
32451;SDS011;45528;52.102;5.242;2023-06-14T01:10:45;6.0;;;1.8;;
32451;SDS011;45528;52.102;5.242;2023-06-14T01:12:39;3.1;;;1.7;;
32451;SDS011;45528;52.102;5.242;2023-06-14T01:16:03;4.61;;;2.1;;
32451;SDS011;45528;52.102;5.242;2023-06-14T01:17:42;5.4;;;1.9;;
32451;SDS011;45528;52.102;5.242;2023-06-14T01:19:20;3.2;;;1.7;;
32451;SDS011;45528;52.102;5.242;2023-06-14T01:20:58;4.41;;;2.0;;
32451;SDS011;45528;52.102;5.242;2023-06-14T01:24:11;3.4;;;1.9;;
32451;SDS011;45528;52.102;5.242;2023-06-14T01:25:47;4.8;;;1.9;;
32451;SDS011;45528;52.102;5.242;2023-06-14T01:27:24;7.0;;;2.21;;
32451;SDS011;45528;52.102;5.242;2023-06-14T01:30:38;4.91;;;2.0;;
32451;SDS011;45528;52.102;5.242;2023-06-14T01:32:16;3.9;;;1.8;;
32451;SDS011;45528;52.102;5.242;2023-06-14T01:33:53;6.8;;;2.0;;
32451;SDS011;45528;52.102;5.242;2023-06-14T01:37:05;4.0;;;1.9;;
32451;SDS011;45528;52.102;5.242;2023-06-14T01:38:43;6.3;;;1.8;;
32451;SDS011;45528;52.102;5.242;2023-06-14T01:40:20;4.41;;;1.9;;
32451;SDS011;45528;52.102;5.242;2023-06-14T01:41:57;4.2;;;1.7;;
32451;SDS011;45528;52.102;5.242;2023-06-14T01:45:11;4.0;;;1.7;;
32451;SDS011;45528;52.102;5.242;2023-06-14T01:46:47;4.3;;;1.9;;
32451;SDS011;45528;52.102;5.242;2023-06-14T01:48:24;4.3;;;1.9;;
32451;SDS011;45528;52.102;5.242;2023-06-14T01:51:38;4.2;;;1.9;;
32451;SDS011;45528;52.102;5.242;2023-06-14T01:53:15;2.9;;;1.6;;
32451;SDS011;45528;52.102;5.242;2023-06-14T01:54:52;7.4;;;2.1;;
32451;SDS011;45528;52.102;5.242;2023-06-14T01:58:04;4.2;;;1.7;;
32451;SDS011;45528;52.102;5.242;2023-06-14T01:59:40;4.91;;;1.9;;
32451;SDS011;45528;52.102;5.242;2023-06-14T02:01:16;5.6;;;1.9;;
32451;SDS011;45528;52.102;5.242;2023-06-14T02:02:52;5.6;;;2.1;;
32451;SDS011;45528;52.102;5.242;2023-06-14T02:06:05;4.7;;;1.8;;
32451;SDS011;45528;52.102;5.242;2023-06-14T02:07:41;4.2;;;2.0;;
32451;SDS011;45528;52.102;5.242;2023-06-14T02:09:17;3.7;;;1.8;;
32451;SDS011;45528;52.102;5.242;2023-06-14T02:12:29;6.0;;;1.7;;
32451;SDS011;45528;52.102;5.242;2023-06-14T02:14:05;6.2;;;1.8;;
32451;SDS011;45528;52.102;5.242;2023-06-14T02:15:42;3.4;;;1.8;;
32451;SDS011;45528;52.102;5.242;2023-06-14T02:18:54;3.9;;;2.1;;
32451;SDS011;45528;52.102;5.242;2023-06-14T02:20:30;4.1;;;1.9;;
32451;SDS011;45528;52.102;5.242;2023-06-14T02:22:06;5.11;;;2.0;;
32451;SDS011;45528;52.102;5.242;2023-06-14T02:25:19;5.9;;;1.8;;
32451;SDS011;45528;52.102;5.242;2023-06-14T02:26:55;3.6;;;1.9;;
32451;SDS011;45528;52.102;5.242;2023-06-14T02:28:31;8.5;;;2.1;;
32451;SDS011;45528;52.102;5.242;2023-06-14T02:30:07;6.0;;;1.9;;
32451;SDS011;45528;52.102;5.242;2023-06-14T02:33:21;5.6;;;1.9;;
32451;SDS011;45528;52.102;5.242;2023-06-14T02:34:57;3.0;;;1.9;;
32451;SDS011;45528;52.102;5.242;2023-06-14T02:36:33;6.0;;;2.1;;
32451;SDS011;45528;52.102;5.242;2023-06-14T02:39:46;4.3;;;1.7;;
32451;SDS011;45528;52.102;5.242;2023-06-14T02:41:22;6.7;;;1.9;;
32451;SDS011;45528;52.102;5.242;2023-06-14T02:42:58;4.7;;;1.8;;
32451;SDS011;45528;52.102;5.242;2023-06-14T02:46:10;7.5;;;2.0;;
32451;SDS011;45528;52.102;5.242;2023-06-14T02:47:47;7.6;;;1.8;;
32451;SDS011;45528;52.102;5.242;2023-06-14T02:49:23;6.2;;;2.1;;
32451;SDS011;45528;52.102;5.242;2023-06-14T02:50:59;4.5;;;1.9;;
32451;SDS011;45528;52.102;5.242;2023-06-14T02:54:11;4.41;;;1.8;;
32451;SDS011;45528;52.102;5.242;2023-06-14T02:55:47;3.8;;;1.9;;
32451;SDS011;45528;52.102;5.242;2023-06-14T02:57:23;2.8;;;1.9;;
32451;SDS011;45528;52.102;5.242;2023-06-14T03:00:36;5.5;;;1.9;;
32451;SDS011;45528;52.102;5.242;2023-06-14T03:02:12;3.6;;;1.7;;
32451;SDS011;45528;52.102;5.242;2023-06-14T03:03:48;6.9;;;1.7;;
32451;SDS011;45528;52.102;5.242;2023-06-14T03:07:00;4.3;;;1.9;;
32451;SDS011;45528;52.102;5.242;2023-06-14T03:08:36;6.1;;;1.9;;
32451;SDS011;45528;52.102;5.242;2023-06-14T03:10:13;3.5;;;1.6;;
32451;SDS011;45528;52.102;5.242;2023-06-14T03:13:25;3.7;;;1.7;;
32451;SDS011;45528;52.102;5.242;2023-06-14T03:15:01;5.4;;;2.1;;
32451;SDS011;45528;52.102;5.242;2023-06-14T03:16:38;5.7;;;2.0;;
32451;SDS011;45528;52.102;5.242;2023-06-14T03:18:14;3.6;;;1.7;;
32451;SDS011;45528;52.102;5.242;2023-06-14T03:21:27;3.6;;;1.9;;
32451;SDS011;45528;52.102;5.242;2023-06-14T03:23:03;5.11;;;1.7;;
32451;SDS011;45528;52.102;5.242;2023-06-14T03:24:39;5.3;;;1.7;;
32451;SDS011;45528;52.102;5.242;2023-06-14T03:27:51;4.61;;;1.8;;
32451;SDS011;45528;52.102;5.242;2023-06-14T03:29:27;4.0;;;1.7;;
32451;SDS011;45528;52.102;5.242;2023-06-14T03:31:03;4.3;;;1.9;;
32451;SDS011;45528;52.102;5.242;2023-06-14T03:34:16;9.4;;;2.21;;
32451;SDS011;45528;52.102;5.242;2023-06-14T03:35:52;3.3;;;1.6;;
32451;SDS011;45528;52.102;5.242;2023-06-14T03:37:28;4.61;;;1.9;;
32451;SDS011;45528;52.102;5.242;2023-06-14T03:39:04;4.0;;;1.9;;
32451;SDS011;45528;52.102;5.242;2023-06-14T03:42:16;5.6;;;1.9;;
32451;SDS011;45528;52.102;5.242;2023-06-14T03:43:53;4.41;;;1.8;;
32451;SDS011;45528;52.102;5.242;2023-06-14T03:45:29;2.9;;;1.7;;
32451;SDS011;45528;52.102;5.242;2023-06-14T03:48:41;4.0;;;1.7;;
32451;SDS011;45528;52.102;5.242;2023-06-14T03:50:17;3.3;;;1.8;;
32451;SDS011;45528;52.102;5.242;2023-06-14T03:51:53;6.3;;;1.8;;
32451;SDS011;45528;52.102;5.242;2023-06-14T03:55:06;3.3;;;1.7;;
32451;SDS011;45528;52.102;5.242;2023-06-14T03:56:42;4.8;;;1.8;;
32451;SDS011;45528;52.102;5.242;2023-06-14T03:58:18;7.0;;;2.1;;
32451;SDS011;45528;52.102;5.242;2023-06-14T04:01:30;4.7;;;1.6;;
32451;SDS011;45528;52.102;5.242;2023-06-14T04:03:06;3.8;;;1.8;;
32451;SDS011;45528;52.102;5.242;2023-06-14T04:04:42;3.6;;;1.7;;
32451;SDS011;45528;52.102;5.242;2023-06-14T04:06:19;6.6;;;2.7;;
32451;SDS011;45528;52.102;5.242;2023-06-14T04:09:31;9.4;;;2.0;;
32451;SDS011;45528;52.102;5.242;2023-06-14T04:11:07;12.5;;;2.5;;
32451;SDS011;45528;52.102;5.242;2023-06-14T04:12:43;5.3;;;2.0;;
32451;SDS011;45528;52.102;5.242;2023-06-14T04:15:55;4.7;;;1.7;;
32451;SDS011;45528;52.102;5.242;2023-06-14T04:17:32;4.91;;;1.5;;
32451;SDS011;45528;52.102;5.242;2023-06-14T04:19:08;3.4;;;1.5;;
32451;SDS011;45528;52.102;5.242;2023-06-14T04:22:20;3.8;;;2.0;;
32451;SDS011;45528;52.102;5.242;2023-06-14T04:23:56;6.5;;;2.21;;
32451;SDS011;45528;52.102;5.242;2023-06-14T04:25:32;7.2;;;2.0;;
32451;SDS011;45528;52.102;5.242;2023-06-14T04:28:45;3.8;;;1.8;;
32451;SDS011;45528;52.102;5.242;2023-06-14T04:30:21;2.9;;;1.8;;
32451;SDS011;45528;52.102;5.242;2023-06-14T04:31:57;5.4;;;1.8;;
32451;SDS011;45528;52.102;5.242;2023-06-14T04:33:33;6.6;;;1.9;;
32451;SDS011;45528;52.102;5.242;2023-06-14T04:36:45;4.5;;;1.8;;
32451;SDS011;45528;52.102;5.242;2023-06-14T04:38:21;7.3;;;1.8;;
32451;SDS011;45528;52.102;5.242;2023-06-14T04:39:58;3.6;;;1.9;;
32451;SDS011;45528;52.102;5.242;2023-06-14T04:43:10;5.3;;;1.8;;
32451;SDS011;45528;52.102;5.242;2023-06-14T04:44:46;5.0;;;1.8;;
32451;SDS011;45528;52.102;5.242;2023-06-14T04:46:22;4.5;;;1.9;;
32451;SDS011;45528;52.102;5.242;2023-06-14T04:51:10;7.4;;;2.1;;
32451;SDS011;45528;52.102;5.242;2023-06-14T04:52:47;5.5;;;1.9;;
32451;SDS011;45528;52.102;5.242;2023-06-14T04:54:23;4.0;;;2.0;;
32451;SDS011;45528;52.102;5.242;2023-06-14T04:57:35;2.9;;;1.6;;
32451;SDS011;45528;52.102;5.242;2023-06-14T04:59:11;5.6;;;2.0;;
32451;SDS011;45528;52.102;5.242;2023-06-14T05:00:47;6.6;;;2.1;;
32451;SDS011;45528;52.102;5.242;2023-06-14T05:04:01;4.41;;;1.9;;
32451;SDS011;45528;52.102;5.242;2023-06-14T05:05:37;4.41;;;1.7;;
32451;SDS011;45528;52.102;5.242;2023-06-14T05:07:13;5.0;;;2.1;;
32451;SDS011;45528;52.102;5.242;2023-06-14T05:10:25;5.4;;;1.9;;
32451;SDS011;45528;52.102;5.242;2023-06-14T05:12:01;6.3;;;1.9;;
32451;SDS011;45528;52.102;5.242;2023-06-14T05:13:37;4.61;;;1.8;;
32451;SDS011;45528;52.102;5.242;2023-06-14T05:16:50;3.1;;;1.8;;
32451;SDS011;45528;52.102;5.242;2023-06-14T05:18:26;6.6;;;1.8;;
32451;SDS011;45528;52.102;5.242;2023-06-14T05:20:02;3.6;;;1.9;;
32451;SDS011;45528;52.102;5.242;2023-06-14T05:21:38;9.0;;;2.0;;
32451;SDS011;45528;52.102;5.242;2023-06-14T05:24:50;8.1;;;2.0;;
32451;SDS011;45528;52.102;5.242;2023-06-14T05:26:26;4.8;;;2.1;;
32451;SDS011;45528;52.102;5.242;2023-06-14T05:28:02;5.5;;;2.0;;
32451;SDS011;45528;52.102;5.242;2023-06-14T05:31:15;3.4;;;1.6;;
32451;SDS011;45528;52.102;5.242;2023-06-14T05:32:51;4.1;;;1.8;;
32451;SDS011;45528;52.102;5.242;2023-06-14T05:34:27;3.6;;;2.1;;
32451;SDS011;45528;52.102;5.242;2023-06-14T05:37:39;4.1;;;2.1;;
32451;SDS011;45528;52.102;5.242;2023-06-14T05:39:16;5.3;;;2.21;;
32451;SDS011;45528;52.102;5.242;2023-06-14T05:40:52;4.1;;;1.6;;
32451;SDS011;45528;52.102;5.242;2023-06-14T05:44:04;7.7;;;2.0;;
32451;SDS011;45528;52.102;5.242;2023-06-14T05:45:40;3.6;;;1.6;;
32451;SDS011;45528;52.102;5.242;2023-06-14T05:47:16;4.0;;;2.0;;
32451;SDS011;45528;52.102;5.242;2023-06-14T05:48:53;4.1;;;1.6;;
32451;SDS011;45528;52.102;5.242;2023-06-14T05:52:07;4.8;;;2.1;;
32451;SDS011;45528;52.102;5.242;2023-06-14T05:53:44;3.2;;;1.7;;
32451;SDS011;45528;52.102;5.242;2023-06-14T05:55:20;5.9;;;2.0;;
32451;SDS011;45528;52.102;5.242;2023-06-14T05:58:32;5.5;;;1.9;;
32451;SDS011;45528;52.102;5.242;2023-06-14T06:00:09;3.5;;;2.0;;
32451;SDS011;45528;52.102;5.242;2023-06-14T06:01:46;4.7;;;2.0;;
32451;SDS011;45528;52.102;5.242;2023-06-14T06:04:58;3.6;;;2.1;;
32451;SDS011;45528;52.102;5.242;2023-06-14T06:06:34;5.9;;;2.0;;
32451;SDS011;45528;52.102;5.242;2023-06-14T06:08:10;3.2;;;1.8;;
32451;SDS011;45528;52.102;5.242;2023-06-14T06:09:46;6.5;;;2.21;;
32451;SDS011;45528;52.102;5.242;2023-06-14T06:12:59;4.2;;;2.31;;
32451;SDS011;45528;52.102;5.242;2023-06-14T06:14:35;5.9;;;1.9;;
32451;SDS011;45528;52.102;5.242;2023-06-14T06:16:11;5.2;;;1.8;;
32451;SDS011;45528;52.102;5.242;2023-06-14T06:19:23;3.7;;;1.9;;
32451;SDS011;45528;52.102;5.242;2023-06-14T06:20:59;3.9;;;2.1;;
32451;SDS011;45528;52.102;5.242;2023-06-14T06:22:35;4.41;;;1.8;;
32451;SDS011;45528;52.102;5.242;2023-06-14T06:25:48;5.6;;;2.1;;
32451;SDS011;45528;52.102;5.242;2023-06-14T06:27:24;3.8;;;2.0;;
32451;SDS011;45528;52.102;5.242;2023-06-14T06:29:00;4.61;;;2.0;;
32451;SDS011;45528;52.102;5.242;2023-06-14T06:30:36;5.5;;;1.9;;
32451;SDS011;45528;52.102;5.242;2023-06-14T06:33:48;4.1;;;1.7;;
32451;SDS011;45528;52.102;5.242;2023-06-14T06:35:25;8.5;;;2.0;;
32451;SDS011;45528;52.102;5.242;2023-06-14T06:37:02;4.2;;;1.9;;
32451;SDS011;45528;52.102;5.242;2023-06-14T06:40:14;7.8;;;2.0;;
32451;SDS011;45528;52.102;5.242;2023-06-14T06:41:50;4.8;;;2.0;;
32451;SDS011;45528;52.102;5.242;2023-06-14T06:43:26;2.9;;;1.7;;
32451;SDS011;45528;52.102;5.242;2023-06-14T06:46:39;5.2;;;1.9;;
32451;SDS011;45528;52.102;5.242;2023-06-14T06:48:15;4.61;;;2.0;;
32451;SDS011;45528;52.102;5.242;2023-06-14T06:49:52;4.0;;;1.9;;
32451;SDS011;45528;52.102;5.242;2023-06-14T06:53:04;5.0;;;1.8;;
32451;SDS011;45528;52.102;5.242;2023-06-14T06:54:40;4.1;;;2.0;;
32451;SDS011;45528;52.102;5.242;2023-06-14T06:56:16;5.11;;;2.21;;
32451;SDS011;45528;52.102;5.242;2023-06-14T06:57:52;7.2;;;2.1;;
32451;SDS011;45528;52.102;5.242;2023-06-14T07:01:05;3.5;;;1.8;;
32451;SDS011;45528;52.102;5.242;2023-06-14T07:02:41;3.6;;;1.9;;
32451;SDS011;45528;52.102;5.242;2023-06-14T07:04:17;5.9;;;2.0;;
32451;SDS011;45528;52.102;5.242;2023-06-14T07:07:29;5.3;;;1.7;;
32451;SDS011;45528;52.102;5.242;2023-06-14T07:09:05;5.4;;;2.0;;
32451;SDS011;45528;52.102;5.242;2023-06-14T07:10:41;6.3;;;2.0;;
32451;SDS011;45528;52.102;5.242;2023-06-14T07:13:54;4.8;;;1.7;;
32451;SDS011;45528;52.102;5.242;2023-06-14T07:15:30;4.1;;;1.9;;
32451;SDS011;45528;52.102;5.242;2023-06-14T07:17:06;3.4;;;1.9;;
32451;SDS011;45528;52.102;5.242;2023-06-14T07:20:18;7.0;;;2.21;;
32451;SDS011;45528;52.102;5.242;2023-06-14T07:21:54;4.3;;;1.9;;
32451;SDS011;45528;52.102;5.242;2023-06-14T07:23:31;7.2;;;2.0;;
32451;SDS011;45528;52.102;5.242;2023-06-14T07:25:08;3.1;;;1.7;;
32451;SDS011;45528;52.102;5.242;2023-06-14T07:28:20;6.4;;;1.8;;
32451;SDS011;45528;52.102;5.242;2023-06-14T07:29:56;2.4;;;1.8;;
32451;SDS011;45528;52.102;5.242;2023-06-14T07:31:32;3.9;;;1.8;;
32451;SDS011;45528;52.102;5.242;2023-06-14T07:34:44;3.8;;;2.0;;
32451;SDS011;45528;52.102;5.242;2023-06-14T07:36:21;4.7;;;1.8;;
32451;SDS011;45528;52.102;5.242;2023-06-14T07:37:58;5.9;;;2.1;;
32451;SDS011;45528;52.102;5.242;2023-06-14T07:41:10;4.1;;;1.6;;
32451;SDS011;45528;52.102;5.242;2023-06-14T07:42:46;3.4;;;1.8;;
32451;SDS011;45528;52.102;5.242;2023-06-14T07:44:22;3.4;;;2.0;;
32451;SDS011;45528;52.102;5.242;2023-06-14T07:45:58;5.0;;;2.0;;
32451;SDS011;45528;52.102;5.242;2023-06-14T07:49:11;5.8;;;2.0;;
32451;SDS011;45528;52.102;5.242;2023-06-14T07:50:47;4.7;;;1.8;;
32451;SDS011;45528;52.102;5.242;2023-06-14T07:52:23;3.8;;;1.7;;
32451;SDS011;45528;52.102;5.242;2023-06-14T07:55:35;6.9;;;2.1;;
32451;SDS011;45528;52.102;5.242;2023-06-14T07:57:11;2.4;;;1.4;;
32451;SDS011;45528;52.102;5.242;2023-06-14T07:58:47;3.9;;;1.8;;
32451;SDS011;45528;52.102;5.242;2023-06-14T08:02:00;3.8;;;1.8;;
32451;SDS011;45528;52.102;5.242;2023-06-14T08:03:36;5.7;;;2.0;;
32451;SDS011;45528;52.102;5.242;2023-06-14T08:05:12;2.5;;;1.6;;
32451;SDS011;45528;52.102;5.242;2023-06-14T08:08:25;4.7;;;1.5;;
32451;SDS011;45528;52.102;5.242;2023-06-14T08:10:01;3.2;;;1.6;;
32451;SDS011;45528;52.102;5.242;2023-06-14T08:11:37;4.5;;;1.7;;
32451;SDS011;45528;52.102;5.242;2023-06-14T08:13:13;3.3;;;1.6;;
32451;SDS011;45528;52.102;5.242;2023-06-14T08:16:26;4.91;;;1.6;;
32451;SDS011;45528;52.102;5.242;2023-06-14T08:18:02;3.6;;;1.7;;
32451;SDS011;45528;52.102;5.242;2023-06-14T08:19:38;3.3;;;1.8;;
32451;SDS011;45528;52.102;5.242;2023-06-14T08:22:50;2.5;;;1.5;;
32451;SDS011;45528;52.102;5.242;2023-06-14T08:24:26;4.8;;;1.5;;
32451;SDS011;45528;52.102;5.242;2023-06-14T08:26:02;3.0;;;1.7;;
32451;SDS011;45528;52.102;5.242;2023-06-14T08:29:16;5.2;;;1.7;;
32451;SDS011;45528;52.102;5.242;2023-06-14T08:30:52;3.3;;;1.7;;
32451;SDS011;45528;52.102;5.242;2023-06-14T08:32:28;4.5;;;1.6;;
32451;SDS011;45528;52.102;5.242;2023-06-14T08:34:04;2.21;;;1.3;;
32451;SDS011;45528;52.102;5.242;2023-06-14T08:37:16;5.9;;;1.7;;
32451;SDS011;45528;52.102;5.242;2023-06-14T08:38:53;2.6;;;1.5;;
32451;SDS011;45528;52.102;5.242;2023-06-14T08:40:29;3.7;;;1.6;;
32451;SDS011;45528;52.102;5.242;2023-06-14T08:43:45;4.41;;;1.4;;
32451;SDS011;45528;52.102;5.242;2023-06-14T08:45:22;3.5;;;1.4;;
32451;SDS011;45528;52.102;5.242;2023-06-14T08:47:00;5.9;;;1.9;;
32451;SDS011;45528;52.102;5.242;2023-06-14T08:50:14;2.5;;;1.4;;
32451;SDS011;45528;52.102;5.242;2023-06-14T08:51:51;2.21;;;1.11;;
32451;SDS011;45528;52.102;5.242;2023-06-14T08:53:34;4.8;;;1.4;;
32451;SDS011;45528;52.102;5.242;2023-06-14T08:55:13;2.8;;;1.4;;
32451;SDS011;45528;52.102;5.242;2023-06-14T08:58:26;2.7;;;1.3;;
32451;SDS011;45528;52.102;5.242;2023-06-14T09:00:04;3.7;;;1.6;;
32451;SDS011;45528;52.102;5.242;2023-06-14T09:01:41;2.5;;;1.2;;
32451;SDS011;45528;52.102;5.242;2023-06-14T09:04:54;2.8;;;1.3;;
32451;SDS011;45528;52.102;5.242;2023-06-14T09:06:30;1.7;;;1.2;;
32451;SDS011;45528;52.102;5.242;2023-06-14T09:08:06;2.4;;;1.3;;
32451;SDS011;45528;52.102;5.242;2023-06-14T09:09:42;3.1;;;1.3;;
32451;SDS011;45528;52.102;5.242;2023-06-14T09:12:55;1.8;;;1.0;;
32451;SDS011;45528;52.102;5.242;2023-06-14T09:14:33;3.4;;;1.11;;
32451;SDS011;45528;52.102;5.242;2023-06-14T09:16:09;5.5;;;1.3;;
32451;SDS011;45528;52.102;5.242;2023-06-14T09:19:22;2.7;;;1.3;;
32451;SDS011;45528;52.102;5.242;2023-06-14T09:20:59;3.8;;;1.0;;
32451;SDS011;45528;52.102;5.242;2023-06-14T09:22:35;3.0;;;1.11;;
32451;SDS011;45528;52.102;5.242;2023-06-14T09:25:50;2.9;;;1.2;;
32451;SDS011;45528;52.102;5.242;2023-06-14T09:27:26;9.81;;;1.9;;
32451;SDS011;45528;52.102;5.242;2023-06-14T09:29:04;3.0;;;1.3;;
32451;SDS011;45528;52.102;5.242;2023-06-14T09:30:41;3.3;;;1.2;;
32451;SDS011;45528;52.102;5.242;2023-06-14T09:33:53;1.6;;;1.0;;
32451;SDS011;45528;52.102;5.242;2023-06-14T09:35:30;4.2;;;1.0;;
32451;SDS011;45528;52.102;5.242;2023-06-14T09:37:06;2.1;;;1.2;;
32451;SDS011;45528;52.102;5.242;2023-06-14T09:40:28;2.0;;;1.0;;
32451;SDS011;45528;52.102;5.242;2023-06-14T09:42:16;2.6;;;1.11;;
32451;SDS011;45528;52.102;5.242;2023-06-14T09:43:52;3.1;;;1.2;;
32451;SDS011;45528;52.102;5.242;2023-06-14T09:45:29;3.7;;;1.11;;
32451;SDS011;45528;52.102;5.242;2023-06-14T09:48:41;3.2;;;1.0;;
32451;SDS011;45528;52.102;5.242;2023-06-14T09:50:18;1.4;;;1.11;;
32451;SDS011;45528;52.102;5.242;2023-06-14T09:51:54;2.31;;;1.11;;
32451;SDS011;45528;52.102;5.242;2023-06-14T09:53:33;2.31;;;1.11;;
32451;SDS011;45528;52.102;5.242;2023-06-14T09:56:49;2.31;;;1.2;;
32451;SDS011;45528;52.102;5.242;2023-06-14T09:58:28;4.91;;;1.0;;
32451;SDS011;45528;52.102;5.242;2023-06-14T10:00:06;1.0;;;0.9;;
32451;SDS011;45528;52.102;5.242;2023-06-14T10:03:21;1.5;;;1.11;;
32451;SDS011;45528;52.102;5.242;2023-06-14T10:05:03;1.2;;;1.0;;
32451;SDS011;45528;52.102;5.242;2023-06-14T10:06:41;2.6;;;1.11;;
32451;SDS011;45528;52.102;5.242;2023-06-14T10:08:23;2.9;;;1.0;;
32451;SDS011;45528;52.102;5.242;2023-06-14T10:11:39;7.9;;;1.3;;
32451;SDS011;45528;52.102;5.242;2023-06-14T10:13:16;5.0;;;1.4;;
32451;SDS011;45528;52.102;5.242;2023-06-14T10:14:53;2.0;;;0.9;;
32451;SDS011;45528;52.102;5.242;2023-06-14T10:18:14;0.9;;;0.8;;
32451;SDS011;45528;52.102;5.242;2023-06-14T10:20:02;2.1;;;1.11;;
32451;SDS011;45528;52.102;5.242;2023-06-14T10:21:55;3.2;;;1.0;;
32451;SDS011;45528;52.102;5.242;2023-06-14T10:23:37;1.6;;;0.8;;
32451;SDS011;45528;52.102;5.242;2023-06-14T10:25:33;1.9;;;1.0;;
32451;SDS011;45528;52.102;5.242;2023-06-14T10:27:10;3.2;;;1.0;;
32451;SDS011;45528;52.102;5.242;2023-06-14T10:30:35;1.8;;;1.11;;
32451;SDS011;45528;52.102;5.242;2023-06-14T10:32:11;1.5;;;1.0;;
32451;SDS011;45528;52.102;5.242;2023-06-14T10:33:48;1.4;;;1.0;;
32451;SDS011;45528;52.102;5.242;2023-06-14T10:35:26;1.5;;;1.0;;
32451;SDS011;45528;52.102;5.242;2023-06-14T10:38:40;1.8;;;1.11;;
32451;SDS011;45528;52.102;5.242;2023-06-14T10:40:29;3.2;;;1.11;;
32451;SDS011;45528;52.102;5.242;2023-06-14T10:42:06;1.8;;;1.2;;
32451;SDS011;45528;52.102;5.242;2023-06-14T10:45:19;6.4;;;1.11;;
32451;SDS011;45528;52.102;5.242;2023-06-14T10:46:57;2.21;;;0.9;;
32451;SDS011;45528;52.102;5.242;2023-06-14T10:48:39;3.9;;;1.0;;
32451;SDS011;45528;52.102;5.242;2023-06-14T10:50:16;2.5;;;1.0;;
32451;SDS011;45528;52.102;5.242;2023-06-14T10:53:39;3.0;;;1.11;;
32451;SDS011;45528;52.102;5.242;2023-06-14T10:55:16;2.1;;;0.9;;
32451;SDS011;45528;52.102;5.242;2023-06-14T10:56:53;1.7;;;0.9;;
32451;SDS011;45528;52.102;5.242;2023-06-14T10:58:29;2.5;;;1.11;;
32451;SDS011;45528;52.102;5.242;2023-06-14T11:01:47;4.61;;;1.0;;
32451;SDS011;45528;52.102;5.242;2023-06-14T11:03:43;1.9;;;1.0;;
32451;SDS011;45528;52.102;5.242;2023-06-14T11:05:26;3.2;;;1.2;;
32451;SDS011;45528;52.102;5.242;2023-06-14T11:07:08;5.6;;;1.2;;
32451;SDS011;45528;52.102;5.242;2023-06-14T11:09:08;1.7;;;1.0;;
32451;SDS011;45528;52.102;5.242;2023-06-14T11:12:07;3.5;;;0.9;;
32451;SDS011;45528;52.102;5.242;2023-06-14T11:13:45;1.7;;;0.9;;
32451;SDS011;45528;52.102;5.242;2023-06-14T11:15:27;3.6;;;1.3;;
32451;SDS011;45528;52.102;5.242;2023-06-14T11:18:41;2.9;;;0.9;;
32451;SDS011;45528;52.102;5.242;2023-06-14T11:20:19;1.9;;;1.0;;
32451;SDS011;45528;52.102;5.242;2023-06-14T11:21:55;2.31;;;1.11;;
32451;SDS011;45528;52.102;5.242;2023-06-14T11:23:31;3.0;;;1.11;;
32451;SDS011;45528;52.102;5.242;2023-06-14T11:26:46;2.1;;;0.9;;
32451;SDS011;45528;52.102;5.242;2023-06-14T11:28:23;4.2;;;1.0;;
32451;SDS011;45528;52.102;5.242;2023-06-14T11:29:59;5.3;;;1.2;;
32451;SDS011;45528;52.102;5.242;2023-06-14T11:33:11;3.1;;;1.2;;
32451;SDS011;45528;52.102;5.242;2023-06-14T11:34:52;1.7;;;0.9;;
32451;SDS011;45528;52.102;5.242;2023-06-14T11:36:28;1.5;;;0.9;;
32451;SDS011;45528;52.102;5.242;2023-06-14T11:39:43;1.6;;;0.9;;
32451;SDS011;45528;52.102;5.242;2023-06-14T11:41:20;1.8;;;0.9;;
32451;SDS011;45528;52.102;5.242;2023-06-14T11:43:00;2.31;;;1.11;;
32451;SDS011;45528;52.102;5.242;2023-06-14T11:44:37;4.5;;;1.0;;
32451;SDS011;45528;52.102;5.242;2023-06-14T11:47:50;2.1;;;0.9;;
32451;SDS011;45528;52.102;5.242;2023-06-14T11:49:26;1.4;;;0.9;;
32451;SDS011;45528;52.102;5.242;2023-06-14T11:51:02;1.5;;;1.0;;
32451;SDS011;45528;52.102;5.242;2023-06-14T11:54:15;1.5;;;1.11;;
32451;SDS011;45528;52.102;5.242;2023-06-14T11:55:51;2.5;;;0.9;;
32451;SDS011;45528;52.102;5.242;2023-06-14T11:57:27;2.31;;;1.0;;
32451;SDS011;45528;52.102;5.242;2023-06-14T12:00:39;1.5;;;1.0;;
32451;SDS011;45528;52.102;5.242;2023-06-14T12:02:15;1.6;;;0.9;;
32451;SDS011;45528;52.102;5.242;2023-06-14T12:03:53;1.4;;;1.0;;
32451;SDS011;45528;52.102;5.242;2023-06-14T12:05:32;1.5;;;1.0;;
32451;SDS011;45528;52.102;5.242;2023-06-14T12:08:45;2.1;;;1.2;;
32451;SDS011;45528;52.102;5.242;2023-06-14T12:10:21;3.9;;;1.0;;
32451;SDS011;45528;52.102;5.242;2023-06-14T12:11:59;4.3;;;1.0;;
32451;SDS011;45528;52.102;5.242;2023-06-14T12:15:13;2.21;;;1.0;;
32451;SDS011;45528;52.102;5.242;2023-06-14T12:16:49;4.5;;;1.0;;
32451;SDS011;45528;52.102;5.242;2023-06-14T12:18:33;3.6;;;1.2;;
32451;SDS011;45528;52.102;5.242;2023-06-14T12:20:11;31.7;;;3.7;;
32451;SDS011;45528;52.102;5.242;2023-06-14T12:23:25;2.31;;;1.11;;
32451;SDS011;45528;52.102;5.242;2023-06-14T12:25:01;2.21;;;1.11;;
32451;SDS011;45528;52.102;5.242;2023-06-14T12:26:37;1.8;;;0.9;;
32451;SDS011;45528;52.102;5.242;2023-06-14T12:29:58;1.6;;;0.9;;
32451;SDS011;45528;52.102;5.242;2023-06-14T12:31:35;3.1;;;1.11;;
32451;SDS011;45528;52.102;5.242;2023-06-14T12:33:11;5.11;;;1.0;;
32451;SDS011;45528;52.102;5.242;2023-06-14T12:34:47;5.5;;;1.3;;
32451;SDS011;45528;52.102;5.242;2023-06-14T12:38:00;1.8;;;0.9;;
32451;SDS011;45528;52.102;5.242;2023-06-14T12:39:37;5.0;;;1.11;;
32451;SDS011;45528;52.102;5.242;2023-06-14T12:41:13;1.11;;;0.8;;
32451;SDS011;45528;52.102;5.242;2023-06-14T12:44:25;1.8;;;1.0;;
32451;SDS011;45528;52.102;5.242;2023-06-14T12:46:01;1.6;;;1.0;;
32451;SDS011;45528;52.102;5.242;2023-06-14T12:47:37;2.6;;;1.11;;
32451;SDS011;45528;52.102;5.242;2023-06-14T12:50:49;1.8;;;1.11;;
32451;SDS011;45528;52.102;5.242;2023-06-14T12:52:26;1.6;;;1.11;;
32451;SDS011;45528;52.102;5.242;2023-06-14T12:54:02;3.3;;;0.9;;
32451;SDS011;45528;52.102;5.242;2023-06-14T12:55:38;2.0;;;1.11;;
32451;SDS011;45528;52.102;5.242;2023-06-14T12:58:50;1.6;;;0.9;;
32451;SDS011;45528;52.102;5.242;2023-06-14T13:00:26;2.7;;;1.11;;